sensor_id;sensor_type;location;lat;lon;timestamp;temperature;humidity
578;DHT22;275;48.492;9.214;2022-10-17T00:02:22;18.70;45.40
578;DHT22;275;48.492;9.214;2022-10-17T00:04:49;18.80;44.70
578;DHT22;275;48.492;9.214;2022-10-17T00:07:15;18.90;44.40
578;DHT22;275;48.492;9.214;2022-10-17T00:09:42;18.90;44.40
578;DHT22;275;48.492;9.214;2022-10-17T00:12:10;18.90;44.40
578;DHT22;275;48.492;9.214;2022-10-17T00:14:38;18.80;44.40
578;DHT22;275;48.492;9.214;2022-10-17T00:17:05;18.60;44.80
578;DHT22;275;48.492;9.214;2022-10-17T00:19:31;18.60;44.90
578;DHT22;275;48.492;9.214;2022-10-17T00:21:58;18.40;45.10
578;DHT22;275;48.492;9.214;2022-10-17T00:24:25;18.30;45.50
578;DHT22;275;48.492;9.214;2022-10-17T00:26:52;18.40;45.10
578;DHT22;275;48.492;9.214;2022-10-17T00:29:18;18.40;45.30
578;DHT22;275;48.492;9.214;2022-10-17T00:31:47;18.40;44.70
578;DHT22;275;48.492;9.214;2022-10-17T00:34:13;18.40;44.60
578;DHT22;275;48.492;9.214;2022-10-17T00:36:40;18.40;44.80
578;DHT22;275;48.492;9.214;2022-10-17T00:39:08;18.30;44.90
578;DHT22;275;48.492;9.214;2022-10-17T00:41:35;18.30;44.90
578;DHT22;275;48.492;9.214;2022-10-17T00:44:03;18.40;44.70
578;DHT22;275;48.492;9.214;2022-10-17T00:46:31;18.40;44.50
578;DHT22;275;48.492;9.214;2022-10-17T00:49:02;18.30;44.40
578;DHT22;275;48.492;9.214;2022-10-17T00:51:33;18.30;44.60
578;DHT22;275;48.492;9.214;2022-10-17T00:54:02;18.40;44.20
578;DHT22;275;48.492;9.214;2022-10-17T00:56:30;18.10;44.50
578;DHT22;275;48.492;9.214;2022-10-17T00:58:57;17.80;45.80
578;DHT22;275;48.492;9.214;2022-10-17T01:01:24;17.80;45.70
578;DHT22;275;48.492;9.214;2022-10-17T01:03:51;17.80;46.00
578;DHT22;275;48.492;9.214;2022-10-17T01:06:19;17.70;45.90
578;DHT22;275;48.492;9.214;2022-10-17T01:08:46;17.90;45.50
578;DHT22;275;48.492;9.214;2022-10-17T01:11:23;17.70;46.10
578;DHT22;275;48.492;9.214;2022-10-17T01:14:00;17.70;45.90
578;DHT22;275;48.492;9.214;2022-10-17T01:16:38;17.90;45.50
578;DHT22;275;48.492;9.214;2022-10-17T01:19:24;18.00;45.20
578;DHT22;275;48.492;9.214;2022-10-17T01:22:01;17.90;45.20
578;DHT22;275;48.492;9.214;2022-10-17T01:24:46;17.80;45.70
578;DHT22;275;48.492;9.214;2022-10-17T01:27:42;17.80;45.60
578;DHT22;275;48.492;9.214;2022-10-17T01:33:26;17.90;45.20
578;DHT22;275;48.492;9.214;2022-10-17T01:35:58;17.70;45.40
578;DHT22;275;48.492;9.214;2022-10-17T01:38:29;17.70;45.40
578;DHT22;275;48.492;9.214;2022-10-17T01:41:01;17.80;44.80
578;DHT22;275;48.492;9.214;2022-10-17T01:43:32;17.50;45.70
578;DHT22;275;48.492;9.214;2022-10-17T01:46:03;17.50;45.50
578;DHT22;275;48.492;9.214;2022-10-17T01:48:35;17.00;47.20
578;DHT22;275;48.492;9.214;2022-10-17T01:51:08;17.00;47.60
578;DHT22;275;48.492;9.214;2022-10-17T01:53:40;17.00;47.50
578;DHT22;275;48.492;9.214;2022-10-17T01:56:09;17.20;46.60
578;DHT22;275;48.492;9.214;2022-10-17T01:58:40;17.20;46.90
578;DHT22;275;48.492;9.214;2022-10-17T02:01:11;16.60;48.70
578;DHT22;275;48.492;9.214;2022-10-17T02:03:40;16.90;47.80
578;DHT22;275;48.492;9.214;2022-10-17T02:06:08;17.10;46.90
578;DHT22;275;48.492;9.214;2022-10-17T02:08:41;17.20;46.40
578;DHT22;275;48.492;9.214;2022-10-17T02:11:12;17.50;45.40
578;DHT22;275;48.492;9.214;2022-10-17T02:13:52;17.30;45.80
578;DHT22;275;48.492;9.214;2022-10-17T02:16:33;17.20;46.20
578;DHT22;275;48.492;9.214;2022-10-17T02:19:10;17.40;45.40
578;DHT22;275;48.492;9.214;2022-10-17T02:21:45;17.30;45.70
578;DHT22;275;48.492;9.214;2022-10-17T02:24:22;17.30;45.00
578;DHT22;275;48.492;9.214;2022-10-17T02:26:55;17.20;45.20
578;DHT22;275;48.492;9.214;2022-10-17T02:29:27;16.90;46.30
578;DHT22;275;48.492;9.214;2022-10-17T02:31:58;16.50;47.20
578;DHT22;275;48.492;9.214;2022-10-17T02:34:30;16.80;46.10
578;DHT22;275;48.492;9.214;2022-10-17T02:36:59;17.10;45.00
578;DHT22;275;48.492;9.214;2022-10-17T02:39:29;17.10;45.00
578;DHT22;275;48.492;9.214;2022-10-17T02:41:59;17.10;44.90
578;DHT22;275;48.492;9.214;2022-10-17T02:44:27;17.10;44.60
578;DHT22;275;48.492;9.214;2022-10-17T02:47:00;17.30;43.90
578;DHT22;275;48.492;9.214;2022-10-17T02:49:34;17.40;43.80
578;DHT22;275;48.492;9.214;2022-10-17T02:52:07;17.30;44.10
578;DHT22;275;48.492;9.214;2022-10-17T02:54:39;17.10;44.70
578;DHT22;275;48.492;9.214;2022-10-17T02:57:11;16.80;45.50
578;DHT22;275;48.492;9.214;2022-10-17T02:59:40;16.80;45.30
578;DHT22;275;48.492;9.214;2022-10-17T03:02:08;16.70;45.70
578;DHT22;275;48.492;9.214;2022-10-17T03:04:36;16.70;45.50
578;DHT22;275;48.492;9.214;2022-10-17T03:07:03;16.80;45.30
578;DHT22;275;48.492;9.214;2022-10-17T03:09:30;16.80;45.30
578;DHT22;275;48.492;9.214;2022-10-17T03:11:56;16.70;45.50
578;DHT22;275;48.492;9.214;2022-10-17T03:14:23;16.60;46.20
578;DHT22;275;48.492;9.214;2022-10-17T03:16:50;16.70;45.70
578;DHT22;275;48.492;9.214;2022-10-17T03:19:17;16.80;45.40
578;DHT22;275;48.492;9.214;2022-10-17T03:21:45;16.70;45.90
578;DHT22;275;48.492;9.214;2022-10-17T03:24:12;16.70;46.10
578;DHT22;275;48.492;9.214;2022-10-17T03:26:39;16.70;46.10
578;DHT22;275;48.492;9.214;2022-10-17T03:29:05;16.30;46.70
578;DHT22;275;48.492;9.214;2022-10-17T03:31:32;16.30;46.60
578;DHT22;275;48.492;9.214;2022-10-17T03:34:01;16.40;46.70
578;DHT22;275;48.492;9.214;2022-10-17T03:36:27;16.50;46.20
578;DHT22;275;48.492;9.214;2022-10-17T03:38:55;16.50;46.50
578;DHT22;275;48.492;9.214;2022-10-17T03:41:22;16.50;46.30
578;DHT22;275;48.492;9.214;2022-10-17T03:43:51;16.80;45.50
578;DHT22;275;48.492;9.214;2022-10-17T03:46:18;16.70;45.60
578;DHT22;275;48.492;9.214;2022-10-17T03:48:44;16.60;46.20
578;DHT22;275;48.492;9.214;2022-10-17T03:51:11;16.70;45.90
578;DHT22;275;48.492;9.214;2022-10-17T03:53:38;16.40;46.60
578;DHT22;275;48.492;9.214;2022-10-17T03:56:11;16.40;46.30
578;DHT22;275;48.492;9.214;2022-10-17T03:58:38;16.40;46.10
578;DHT22;275;48.492;9.214;2022-10-17T04:01:06;16.50;45.60
578;DHT22;275;48.492;9.214;2022-10-17T04:03:33;16.40;45.90
578;DHT22;275;48.492;9.214;2022-10-17T04:06:00;16.20;46.50
578;DHT22;275;48.492;9.214;2022-10-17T04:08:27;16.10;46.20
578;DHT22;275;48.492;9.214;2022-10-17T04:10:57;15.90;46.50
578;DHT22;275;48.492;9.214;2022-10-17T04:13:26;15.90;46.10
578;DHT22;275;48.492;9.214;2022-10-17T04:15:54;16.10;45.70
578;DHT22;275;48.492;9.214;2022-10-17T04:18:21;16.20;46.00
578;DHT22;275;48.492;9.214;2022-10-17T04:20:47;16.20;45.20
578;DHT22;275;48.492;9.214;2022-10-17T04:23:14;16.10;45.50
578;DHT22;275;48.492;9.214;2022-10-17T04:25:41;16.00;45.30
578;DHT22;275;48.492;9.214;2022-10-17T04:28:08;16.10;45.10
578;DHT22;275;48.492;9.214;2022-10-17T04:30:36;15.60;46.60
578;DHT22;275;48.492;9.214;2022-10-17T04:33:04;15.40;47.20
578;DHT22;275;48.492;9.214;2022-10-17T04:35:30;15.60;46.60
578;DHT22;275;48.492;9.214;2022-10-17T04:37:57;15.50;46.70
578;DHT22;275;48.492;9.214;2022-10-17T04:40:24;15.90;45.50
578;DHT22;275;48.492;9.214;2022-10-17T04:42:51;16.10;45.00
578;DHT22;275;48.492;9.214;2022-10-17T04:45:18;16.30;44.30
578;DHT22;275;48.492;9.214;2022-10-17T04:47:46;16.40;44.10
578;DHT22;275;48.492;9.214;2022-10-17T04:50:13;16.50;43.70
578;DHT22;275;48.492;9.214;2022-10-17T04:52:39;16.60;43.20
578;DHT22;275;48.492;9.214;2022-10-17T04:55:07;16.60;43.40
578;DHT22;275;48.492;9.214;2022-10-17T04:57:34;16.40;43.90
578;DHT22;275;48.492;9.214;2022-10-17T05:00:01;16.10;44.70
578;DHT22;275;48.492;9.214;2022-10-17T05:02:28;15.80;45.40
578;DHT22;275;48.492;9.214;2022-10-17T05:04:56;15.90;46.00
578;DHT22;275;48.492;9.214;2022-10-17T05:07:23;15.80;46.40
578;DHT22;275;48.492;9.214;2022-10-17T05:09:50;15.80;46.70
578;DHT22;275;48.492;9.214;2022-10-17T05:12:16;15.70;47.30
578;DHT22;275;48.492;9.214;2022-10-17T05:14:43;15.60;47.80
578;DHT22;275;48.492;9.214;2022-10-17T05:17:10;15.70;47.30
578;DHT22;275;48.492;9.214;2022-10-17T05:19:36;15.90;46.50
578;DHT22;275;48.492;9.214;2022-10-17T05:22:04;16.00;46.30
578;DHT22;275;48.492;9.214;2022-10-17T05:24:31;16.00;46.80
578;DHT22;275;48.492;9.214;2022-10-17T05:26:58;16.00;46.60
578;DHT22;275;48.492;9.214;2022-10-17T05:29:25;15.90;46.70
578;DHT22;275;48.492;9.214;2022-10-17T05:31:52;15.80;47.20
578;DHT22;275;48.492;9.214;2022-10-17T05:34:19;15.20;49.10
578;DHT22;275;48.492;9.214;2022-10-17T05:36:45;15.30;48.40
578;DHT22;275;48.492;9.214;2022-10-17T05:39:13;15.40;47.90
578;DHT22;275;48.492;9.214;2022-10-17T05:41:44;14.90;48.90
578;DHT22;275;48.492;9.214;2022-10-17T05:44:10;14.70;49.70
578;DHT22;275;48.492;9.214;2022-10-17T05:46:37;14.60;49.90
578;DHT22;275;48.492;9.214;2022-10-17T05:49:04;14.40;50.70
578;DHT22;275;48.492;9.214;2022-10-17T05:51:32;14.20;51.20
578;DHT22;275;48.492;9.214;2022-10-17T05:53:59;14.20;51.60
578;DHT22;275;48.492;9.214;2022-10-17T05:56:27;14.40;50.90
578;DHT22;275;48.492;9.214;2022-10-17T05:58:54;14.90;49.70
578;DHT22;275;48.492;9.214;2022-10-17T06:01:20;15.40;48.00
578;DHT22;275;48.492;9.214;2022-10-17T06:03:49;15.90;46.30
578;DHT22;275;48.492;9.214;2022-10-17T06:06:16;15.90;46.20
578;DHT22;275;48.492;9.214;2022-10-17T06:08:44;15.40;47.80
578;DHT22;275;48.492;9.214;2022-10-17T06:11:11;15.70;47.00
578;DHT22;275;48.492;9.214;2022-10-17T06:13:40;16.20;46.00
578;DHT22;275;48.492;9.214;2022-10-17T06:16:07;16.30;45.50
578;DHT22;275;48.492;9.214;2022-10-17T06:18:34;16.40;45.30
578;DHT22;275;48.492;9.214;2022-10-17T06:21:02;16.50;44.70
578;DHT22;275;48.492;9.214;2022-10-17T06:23:29;16.60;44.60
578;DHT22;275;48.492;9.214;2022-10-17T06:25:58;16.60;44.40
578;DHT22;275;48.492;9.214;2022-10-17T06:28:25;16.70;43.90
578;DHT22;275;48.492;9.214;2022-10-17T06:30:53;16.50;44.30
578;DHT22;275;48.492;9.214;2022-10-17T06:33:20;16.30;45.30
578;DHT22;275;48.492;9.214;2022-10-17T06:35:50;16.50;45.00
578;DHT22;275;48.492;9.214;2022-10-17T06:38:17;16.50;44.70
578;DHT22;275;48.492;9.214;2022-10-17T06:40:44;16.60;45.20
578;DHT22;275;48.492;9.214;2022-10-17T06:43:11;16.30;45.30
578;DHT22;275;48.492;9.214;2022-10-17T06:45:38;16.20;45.50
578;DHT22;275;48.492;9.214;2022-10-17T06:48:07;16.20;45.10
578;DHT22;275;48.492;9.214;2022-10-17T06:50:34;16.30;44.90
578;DHT22;275;48.492;9.214;2022-10-17T06:53:01;16.10;45.80
578;DHT22;275;48.492;9.214;2022-10-17T06:55:29;16.10;46.40
578;DHT22;275;48.492;9.214;2022-10-17T06:57:56;16.00;46.60
578;DHT22;275;48.492;9.214;2022-10-17T07:00:23;16.10;46.50
578;DHT22;275;48.492;9.214;2022-10-17T07:02:51;16.30;45.90
578;DHT22;275;48.492;9.214;2022-10-17T07:05:19;16.60;45.20
578;DHT22;275;48.492;9.214;2022-10-17T07:07:46;16.60;45.30
578;DHT22;275;48.492;9.214;2022-10-17T07:10:13;16.40;45.50
578;DHT22;275;48.492;9.214;2022-10-17T07:12:40;16.30;46.00
578;DHT22;275;48.492;9.214;2022-10-17T07:15:09;16.40;45.80
578;DHT22;275;48.492;9.214;2022-10-17T07:17:36;16.50;45.60
578;DHT22;275;48.492;9.214;2022-10-17T07:20:04;16.80;44.90
578;DHT22;275;48.492;9.214;2022-10-17T07:22:32;17.00;44.20
578;DHT22;275;48.492;9.214;2022-10-17T07:24:59;17.10;44.20
578;DHT22;275;48.492;9.214;2022-10-17T07:27:25;17.10;44.00
578;DHT22;275;48.492;9.214;2022-10-17T07:29:52;17.20;43.40
578;DHT22;275;48.492;9.214;2022-10-17T07:32:19;17.10;43.60
578;DHT22;275;48.492;9.214;2022-10-17T07:34:46;17.20;43.40
578;DHT22;275;48.492;9.214;2022-10-17T07:37:13;17.30;43.10
578;DHT22;275;48.492;9.214;2022-10-17T07:39:41;17.40;43.20
578;DHT22;275;48.492;9.214;2022-10-17T07:42:08;17.40;43.20
578;DHT22;275;48.492;9.214;2022-10-17T07:44:35;17.50;42.80
578;DHT22;275;48.492;9.214;2022-10-17T07:47:02;17.60;42.80
578;DHT22;275;48.492;9.214;2022-10-17T07:49:29;17.80;42.50
578;DHT22;275;48.492;9.214;2022-10-17T07:51:55;17.60;42.90
578;DHT22;275;48.492;9.214;2022-10-17T07:54:22;17.80;42.70
578;DHT22;275;48.492;9.214;2022-10-17T07:56:51;17.60;43.30
578;DHT22;275;48.492;9.214;2022-10-17T07:59:18;17.90;42.50
578;DHT22;275;48.492;9.214;2022-10-17T08:01:45;18.10;42.10
578;DHT22;275;48.492;9.214;2022-10-17T08:04:11;18.30;41.70
578;DHT22;275;48.492;9.214;2022-10-17T08:06:42;18.50;41.30
578;DHT22;275;48.492;9.214;2022-10-17T08:09:09;18.60;41.00
578;DHT22;275;48.492;9.214;2022-10-17T08:11:36;18.80;40.80
578;DHT22;275;48.492;9.214;2022-10-17T08:14:10;19.00;40.50
578;DHT22;275;48.492;9.214;2022-10-17T08:16:37;19.20;39.90
578;DHT22;275;48.492;9.214;2022-10-17T08:19:04;19.20;39.90
578;DHT22;275;48.492;9.214;2022-10-17T08:21:31;19.40;39.20
578;DHT22;275;48.492;9.214;2022-10-17T08:23:58;19.50;39.20
578;DHT22;275;48.492;9.214;2022-10-17T08:26:26;19.80;39.00
578;DHT22;275;48.492;9.214;2022-10-17T08:28:53;19.80;39.10
578;DHT22;275;48.492;9.214;2022-10-17T08:31:21;19.90;38.70
578;DHT22;275;48.492;9.214;2022-10-17T08:33:49;20.10;38.50
578;DHT22;275;48.492;9.214;2022-10-17T08:36:17;20.40;37.80
578;DHT22;275;48.492;9.214;2022-10-17T08:38:45;20.40;38.10
578;DHT22;275;48.492;9.214;2022-10-17T08:41:17;20.50;37.90
578;DHT22;275;48.492;9.214;2022-10-17T08:43:54;20.70;37.30
578;DHT22;275;48.492;9.214;2022-10-17T08:46:28;20.70;37.00
578;DHT22;275;48.492;9.214;2022-10-17T08:48:58;20.50;37.60
578;DHT22;275;48.492;9.214;2022-10-17T08:51:28;20.60;37.60
578;DHT22;275;48.492;9.214;2022-10-17T08:54:05;20.60;37.80
578;DHT22;275;48.492;9.214;2022-10-17T08:56:43;20.60;37.70
578;DHT22;275;48.492;9.214;2022-10-17T08:59:12;20.70;37.80
578;DHT22;275;48.492;9.214;2022-10-17T09:01:46;20.90;37.60
578;DHT22;275;48.492;9.214;2022-10-17T09:04:42;20.20;39.40
578;DHT22;275;48.492;9.214;2022-10-17T09:07:18;19.70;41.00
578;DHT22;275;48.492;9.214;2022-10-17T09:09:52;20.50;39.60
578;DHT22;275;48.492;9.214;2022-10-17T09:12:23;20.80;38.40
578;DHT22;275;48.492;9.214;2022-10-17T09:15:17;21.30;37.60
578;DHT22;275;48.492;9.214;2022-10-17T09:17:53;22.10;36.00
578;DHT22;275;48.492;9.214;2022-10-17T09:20:23;22.20;35.50
578;DHT22;275;48.492;9.214;2022-10-17T09:22:55;21.60;36.90
578;DHT22;275;48.492;9.214;2022-10-17T09:25:22;22.00;35.90
578;DHT22;275;48.492;9.214;2022-10-17T09:28:02;22.00;36.30
578;DHT22;275;48.492;9.214;2022-10-17T09:30:39;21.60;37.00
578;DHT22;275;48.492;9.214;2022-10-17T09:33:14;21.60;37.40
578;DHT22;275;48.492;9.214;2022-10-17T09:35:41;22.30;35.80
578;DHT22;275;48.492;9.214;2022-10-17T09:38:15;23.00;34.50
578;DHT22;275;48.492;9.214;2022-10-17T09:40:43;23.60;33.40
578;DHT22;275;48.492;9.214;2022-10-17T09:43:12;23.80;33.00
578;DHT22;275;48.492;9.214;2022-10-17T09:45:44;23.80;33.00
578;DHT22;275;48.492;9.214;2022-10-17T09:48:21;24.00;33.00
578;DHT22;275;48.492;9.214;2022-10-17T09:50:48;24.50;32.10
578;DHT22;275;48.492;9.214;2022-10-17T09:53:21;24.50;31.90
578;DHT22;275;48.492;9.214;2022-10-17T09:55:52;24.90;31.30
578;DHT22;275;48.492;9.214;2022-10-17T09:58:21;25.30;30.70
578;DHT22;275;48.492;9.214;2022-10-17T10:00:49;26.10;29.60
578;DHT22;275;48.492;9.214;2022-10-17T10:03:19;27.00;28.70
578;DHT22;275;48.492;9.214;2022-10-17T10:06:01;27.80;27.60
578;DHT22;275;48.492;9.214;2022-10-17T10:08:30;28.90;26.00
578;DHT22;275;48.492;9.214;2022-10-17T10:10:59;31.00;23.50
578;DHT22;275;48.492;9.214;2022-10-17T10:13:28;33.30;20.90
578;DHT22;275;48.492;9.214;2022-10-17T10:16:12;35.20;19.00
578;DHT22;275;48.492;9.214;2022-10-17T10:18:41;37.20;16.30
578;DHT22;275;48.492;9.214;2022-10-17T10:21:11;38.20;15.00
578;DHT22;275;48.492;9.214;2022-10-17T10:23:40;39.00;14.30
578;DHT22;275;48.492;9.214;2022-10-17T10:26:26;39.30;14.40
578;DHT22;275;48.492;9.214;2022-10-17T10:28:56;39.90;12.90
578;DHT22;275;48.492;9.214;2022-10-17T10:31:29;40.00;12.60
578;DHT22;275;48.492;9.214;2022-10-17T10:34:00;40.00;12.40
578;DHT22;275;48.492;9.214;2022-10-17T10:36:48;41.10;11.60
578;DHT22;275;48.492;9.214;2022-10-17T10:39:27;41.90;10.60
578;DHT22;275;48.492;9.214;2022-10-17T10:41:54;41.20;10.60
578;DHT22;275;48.492;9.214;2022-10-17T10:44:24;41.50;10.70
578;DHT22;275;48.492;9.214;2022-10-17T10:47:13;42.20;10.00
578;DHT22;275;48.492;9.214;2022-10-17T10:49:43;41.40;10.40
578;DHT22;275;48.492;9.214;2022-10-17T10:52:17;40.50;11.00
578;DHT22;275;48.492;9.214;2022-10-17T10:54:52;38.20;12.60
578;DHT22;275;48.492;9.214;2022-10-17T10:57:23;36.60;14.00
578;DHT22;275;48.492;9.214;2022-10-17T10:59:57;35.00;15.80
578;DHT22;275;48.492;9.214;2022-10-17T11:02:29;33.60;17.10
578;DHT22;275;48.492;9.214;2022-10-17T11:05:03;32.60;18.30
578;DHT22;275;48.492;9.214;2022-10-17T11:07:34;31.80;19.40
578;DHT22;275;48.492;9.214;2022-10-17T11:10:07;31.20;20.60
578;DHT22;275;48.492;9.214;2022-10-17T11:12:38;31.00;20.80
578;DHT22;275;48.492;9.214;2022-10-17T11:15:16;30.70;21.50
578;DHT22;275;48.492;9.214;2022-10-17T11:17:51;30.20;22.10
578;DHT22;275;48.492;9.214;2022-10-17T11:20:29;30.10;22.00
578;DHT22;275;48.492;9.214;2022-10-17T11:23:04;29.60;22.30
578;DHT22;275;48.492;9.214;2022-10-17T11:25:36;29.50;22.60
578;DHT22;275;48.492;9.214;2022-10-17T11:28:09;29.20;22.80
578;DHT22;275;48.492;9.214;2022-10-17T11:30:43;29.20;22.90
578;DHT22;275;48.492;9.214;2022-10-17T11:33:17;28.90;23.40
578;DHT22;275;48.492;9.214;2022-10-17T11:35:49;28.70;23.40
578;DHT22;275;48.492;9.214;2022-10-17T11:38:32;28.70;23.60
578;DHT22;275;48.492;9.214;2022-10-17T11:41:02;28.30;24.50
578;DHT22;275;48.492;9.214;2022-10-17T11:43:32;27.70;25.50
578;DHT22;275;48.492;9.214;2022-10-17T11:46:03;27.60;26.30
578;DHT22;275;48.492;9.214;2022-10-17T11:48:34;27.70;26.30
578;DHT22;275;48.492;9.214;2022-10-17T11:51:08;27.70;26.40
578;DHT22;275;48.492;9.214;2022-10-17T11:53:45;27.70;26.40
578;DHT22;275;48.492;9.214;2022-10-17T11:56:19;27.40;26.80
578;DHT22;275;48.492;9.214;2022-10-17T11:58:51;27.00;27.40
578;DHT22;275;48.492;9.214;2022-10-17T12:01:27;27.00;27.50
578;DHT22;275;48.492;9.214;2022-10-17T12:04:03;27.30;26.80
578;DHT22;275;48.492;9.214;2022-10-17T12:06:48;27.10;26.40
578;DHT22;275;48.492;9.214;2022-10-17T12:09:25;27.60;26.40
578;DHT22;275;48.492;9.214;2022-10-17T12:11:55;28.20;25.90
578;DHT22;275;48.492;9.214;2022-10-17T12:14:46;28.60;25.30
578;DHT22;275;48.492;9.214;2022-10-17T12:17:27;30.40;23.10
578;DHT22;275;48.492;9.214;2022-10-17T12:20:27;33.40;17.90
578;DHT22;275;48.492;9.214;2022-10-17T12:23:00;36.10;15.10
578;DHT22;275;48.492;9.214;2022-10-17T12:25:29;36.80;13.70
578;DHT22;275;48.492;9.214;2022-10-17T12:28:12;37.00;13.10
578;DHT22;275;48.492;9.214;2022-10-17T12:30:50;36.90;12.70
578;DHT22;275;48.492;9.214;2022-10-17T12:33:19;37.50;11.90
578;DHT22;275;48.492;9.214;2022-10-17T12:35:48;37.20;12.20
578;DHT22;275;48.492;9.214;2022-10-17T12:38:25;37.20;12.10
578;DHT22;275;48.492;9.214;2022-10-17T12:41:02;36.30;12.40
578;DHT22;275;48.492;9.214;2022-10-17T12:43:56;36.90;12.30
578;DHT22;275;48.492;9.214;2022-10-17T12:46:56;38.40;10.70
578;DHT22;275;48.492;9.214;2022-10-17T12:49:38;38.20;10.20
578;DHT22;275;48.492;9.214;2022-10-17T12:52:22;37.50;10.40
578;DHT22;275;48.492;9.214;2022-10-17T12:55:06;34.70;12.10
578;DHT22;275;48.492;9.214;2022-10-17T12:57:42;33.10;14.20
578;DHT22;275;48.492;9.214;2022-10-17T13:00:17;34.40;13.10
578;DHT22;275;48.492;9.214;2022-10-17T13:02:45;35.80;11.60
578;DHT22;275;48.492;9.214;2022-10-17T13:05:15;36.90;10.60
578;DHT22;275;48.492;9.214;2022-10-17T13:07:44;35.30;10.50
578;DHT22;275;48.492;9.214;2022-10-17T13:10:24;34.70;12.30
578;DHT22;275;48.492;9.214;2022-10-17T13:12:57;36.40;10.40
578;DHT22;275;48.492;9.214;2022-10-17T13:15:27;35.10;10.90
578;DHT22;275;48.492;9.214;2022-10-17T13:17:56;34.90;11.50
578;DHT22;275;48.492;9.214;2022-10-17T13:20:26;34.40;12.00
578;DHT22;275;48.492;9.214;2022-10-17T13:22:54;35.70;11.10
578;DHT22;275;48.492;9.214;2022-10-17T13:25:24;33.90;11.70
578;DHT22;275;48.492;9.214;2022-10-17T13:28:03;33.30;12.50
578;DHT22;275;48.492;9.214;2022-10-17T13:30:31;33.30;12.30
578;DHT22;275;48.492;9.214;2022-10-17T13:32:59;32.60;13.00
578;DHT22;275;48.492;9.214;2022-10-17T13:35:28;33.00;12.60
578;DHT22;275;48.492;9.214;2022-10-17T13:37:56;32.80;12.50
578;DHT22;275;48.492;9.214;2022-10-17T13:40:28;32.60;13.00
578;DHT22;275;48.492;9.214;2022-10-17T13:42:57;33.50;12.00
578;DHT22;275;48.492;9.214;2022-10-17T13:45:28;34.00;11.20
578;DHT22;275;48.492;9.214;2022-10-17T13:47:57;33.20;12.10
578;DHT22;275;48.492;9.214;2022-10-17T13:50:30;32.30;12.90
578;DHT22;275;48.492;9.214;2022-10-17T13:53:14;32.40;12.80
578;DHT22;275;48.492;9.214;2022-10-17T13:55:58;33.00;12.60
578;DHT22;275;48.492;9.214;2022-10-17T13:58:26;32.90;12.50
578;DHT22;275;48.492;9.214;2022-10-17T14:00:55;33.40;12.10
578;DHT22;275;48.492;9.214;2022-10-17T14:03:22;33.80;12.00
578;DHT22;275;48.492;9.214;2022-10-17T14:06:06;32.80;13.40
578;DHT22;275;48.492;9.214;2022-10-17T14:08:36;33.00;12.60
578;DHT22;275;48.492;9.214;2022-10-17T14:11:14;32.10;13.30
578;DHT22;275;48.492;9.214;2022-10-17T14:13:47;30.90;14.50
578;DHT22;275;48.492;9.214;2022-10-17T14:16:15;30.80;15.20
578;DHT22;275;48.492;9.214;2022-10-17T14:18:46;30.70;15.00
578;DHT22;275;48.492;9.214;2022-10-17T14:21:18;30.20;15.60
578;DHT22;275;48.492;9.214;2022-10-17T14:23:45;29.50;16.40
578;DHT22;275;48.492;9.214;2022-10-17T14:26:16;29.10;16.90
578;DHT22;275;48.492;9.214;2022-10-17T14:28:46;28.50;17.50
578;DHT22;275;48.492;9.214;2022-10-17T14:31:27;28.10;18.20
578;DHT22;275;48.492;9.214;2022-10-17T14:33:55;27.50;19.00
578;DHT22;275;48.492;9.214;2022-10-17T14:36:38;27.80;18.70
578;DHT22;275;48.492;9.214;2022-10-17T14:39:15;28.10;18.30
578;DHT22;275;48.492;9.214;2022-10-17T14:41:45;27.80;18.70
578;DHT22;275;48.492;9.214;2022-10-17T14:44:22;27.70;18.90
578;DHT22;275;48.492;9.214;2022-10-17T14:46:53;27.70;19.00
578;DHT22;275;48.492;9.214;2022-10-17T14:49:31;27.90;18.90
578;DHT22;275;48.492;9.214;2022-10-17T14:52:25;28.20;18.60
578;DHT22;275;48.492;9.214;2022-10-17T14:54:52;28.20;18.80
578;DHT22;275;48.492;9.214;2022-10-17T14:57:26;28.10;19.00
578;DHT22;275;48.492;9.214;2022-10-17T14:59:54;27.60;19.90
578;DHT22;275;48.492;9.214;2022-10-17T15:02:22;27.80;20.00
578;DHT22;275;48.492;9.214;2022-10-17T15:04:49;27.60;20.40
578;DHT22;275;48.492;9.214;2022-10-17T15:07:16;27.80;19.90
578;DHT22;275;48.492;9.214;2022-10-17T15:09:44;27.60;19.80
578;DHT22;275;48.492;9.214;2022-10-17T15:12:14;27.50;20.10
578;DHT22;275;48.492;9.214;2022-10-17T15:14:43;27.70;19.90
578;DHT22;275;48.492;9.214;2022-10-17T15:17:14;28.00;20.20
578;DHT22;275;48.492;9.214;2022-10-17T15:19:41;28.00;19.50
578;DHT22;275;48.492;9.214;2022-10-17T15:22:08;27.60;20.30
578;DHT22;275;48.492;9.214;2022-10-17T15:24:35;27.30;20.70
578;DHT22;275;48.492;9.214;2022-10-17T15:27:02;27.30;20.70
578;DHT22;275;48.492;9.214;2022-10-17T15:29:29;27.40;20.70
578;DHT22;275;48.492;9.214;2022-10-17T15:31:57;27.60;20.40
578;DHT22;275;48.492;9.214;2022-10-17T15:34:24;27.80;20.50
578;DHT22;275;48.492;9.214;2022-10-17T15:36:51;27.60;20.40
578;DHT22;275;48.492;9.214;2022-10-17T15:39:19;27.40;21.30
578;DHT22;275;48.492;9.214;2022-10-17T15:41:47;26.90;22.10
578;DHT22;275;48.492;9.214;2022-10-17T15:44:14;26.90;22.50
578;DHT22;275;48.492;9.214;2022-10-17T15:46:41;27.10;22.20
578;DHT22;275;48.492;9.214;2022-10-17T15:49:13;27.30;21.80
578;DHT22;275;48.492;9.214;2022-10-17T15:51:40;27.20;21.70
578;DHT22;275;48.492;9.214;2022-10-17T15:54:07;27.20;21.80
578;DHT22;275;48.492;9.214;2022-10-17T15:56:36;27.30;21.80
578;DHT22;275;48.492;9.214;2022-10-17T15:59:09;27.10;22.20
578;DHT22;275;48.492;9.214;2022-10-17T16:01:37;26.90;22.50
578;DHT22;275;48.492;9.214;2022-10-17T16:04:05;26.80;22.90
578;DHT22;275;48.492;9.214;2022-10-17T16:06:33;26.60;23.10
578;DHT22;275;48.492;9.214;2022-10-17T16:09:00;26.50;23.10
578;DHT22;275;48.492;9.214;2022-10-17T16:11:30;26.60;23.30
578;DHT22;275;48.492;9.214;2022-10-17T16:14:00;26.50;23.30
578;DHT22;275;48.492;9.214;2022-10-17T16:16:28;26.10;23.80
578;DHT22;275;48.492;9.214;2022-10-17T16:18:55;25.90;24.40
578;DHT22;275;48.492;9.214;2022-10-17T16:21:24;26.10;24.90
578;DHT22;275;48.492;9.214;2022-10-17T16:23:53;25.80;25.70
578;DHT22;275;48.492;9.214;2022-10-17T16:26:20;25.60;26.20
578;DHT22;275;48.492;9.214;2022-10-17T16:28:46;25.50;26.40
578;DHT22;275;48.492;9.214;2022-10-17T16:31:22;25.40;26.80
578;DHT22;275;48.492;9.214;2022-10-17T16:33:51;25.30;27.10
578;DHT22;275;48.492;9.214;2022-10-17T16:36:18;24.80;27.80
578;DHT22;275;48.492;9.214;2022-10-17T16:38:45;24.50;28.60
578;DHT22;275;48.492;9.214;2022-10-17T16:41:20;24.20;29.00
578;DHT22;275;48.492;9.214;2022-10-17T16:43:48;23.90;29.50
578;DHT22;275;48.492;9.214;2022-10-17T16:46:16;23.50;30.00
578;DHT22;275;48.492;9.214;2022-10-17T16:48:43;23.40;30.10
578;DHT22;275;48.492;9.214;2022-10-17T16:51:10;23.40;30.00
578;DHT22;275;48.492;9.214;2022-10-17T16:53:37;23.30;30.20
578;DHT22;275;48.492;9.214;2022-10-17T16:56:09;23.40;30.00
578;DHT22;275;48.492;9.214;2022-10-17T16:58:37;23.30;30.00
578;DHT22;275;48.492;9.214;2022-10-17T17:01:06;23.00;31.80